Time;durP1;ratioP1;P1;durP2;ratioP2;P2;SDS_P1;SDS_P2;PMS_P1;PMS_P2;Temp;Humidity;BMP_temperature;BMP_pressure;BME280_temperature;BME280_humidity;BME280_pressure;Samples;Min_cycle;Max_cycle;Signal;HPM_P1;HPM_P2
2022/10/01 00:00:03;;;;;;;12.23;8.15;;;;;;;7.15;65.51;99338.69;10397195;28;20064;-81
2022/10/01 00:05:06;;;;;;;9.85;6.32;;;;;;;7.10;65.48;99335.53;10396047;28;20060;-81
2022/10/01 00:10:09;;;;;;;10.18;5.80;;;;;;;7.21;65.54;99333.16;10411115;28;20053;-81
2022/10/01 00:15:13;;;;;;;14.32;6.47;;;;;;;7.22;65.04;99318.38;10401675;28;20064;-80
2022/10/01 00:20:16;;;;;;;11.85;6.05;;;;;;;7.18;65.83;99304.72;10412930;28;20072;-81
2022/10/01 00:25:18;;;;;;;10.40;6.78;;;;;;;7.02;65.76;99290.91;10402882;28;20128;-81
2022/10/01 00:30:20;;;;;;;9.32;6.50;;;;;;;7.04;66.09;99284.69;10397547;28;20057;-80
2022/10/01 00:35:23;;;;;;;10.82;5.95;;;;;;;7.14;65.96;99275.44;10395723;28;20056;-82
2022/10/01 00:40:24;;;;;;;11.52;6.88;;;;;;;7.12;65.85;99277.28;10392981;28;20041;-81
2022/10/01 00:45:26;;;;;;;12.30;5.88;;;;;;;7.16;65.75;99272.78;10393462;28;20057;-81
2022/10/01 00:50:31;;;;;;;11.60;6.10;;;;;;;7.26;65.62;99267.88;10412583;28;20061;-81
2022/10/01 00:55:38;;;;;;;12.85;6.50;;;;;;;7.22;65.77;99258.56;10397392;28;20527;-80
2022/10/01 01:00:41;;;;;;;11.85;6.72;;;;;;;7.11;65.86;99251.38;10391794;28;20041;-81
2022/10/01 01:05:45;;;;;;;9.43;6.85;;;;;;;7.12;65.98;99255.66;10412013;28;20064;-81
2022/10/01 01:11:00;;;;;;;10.13;6.45;;;;;;;7.16;66.10;99250.19;10389686;28;20050;-81
2022/10/01 01:16:06;;;;;;;12.48;6.20;;;;;;;7.19;65.87;99247.44;10403609;28;20056;-81
2022/10/01 01:21:13;;;;;;;12.50;7.38;;;;;;;7.08;66.17;99238.56;10409568;28;20582;-81
2022/10/01 01:26:47;;;;;;;11.80;7.15;;;;;;;7.06;66.42;99230.81;10413102;28;20434;-81
2022/10/01 01:31:49;;;;;;;14.38;7.97;;;;;;;7.26;65.93;99227.13;10412769;28;20057;-80
2022/10/01 01:37:03;;;;;;;10.77;5.90;;;;;;;7.26;66.07;99216.72;10412796;28;20563;-80
2022/10/01 01:42:12;;;;;;;12.98;7.53;;;;;;;7.19;66.22;99207.56;10414406;28;20768;-81
2022/10/01 01:47:15;;;;;;;8.60;6.15;;;;;;;7.28;66.33;99204.47;10396860;28;20053;-81
2022/10/01 01:52:17;;;;;;;10.65;5.28;;;;;;;7.25;66.28;99196.81;10413261;28;20053;-80
2022/10/01 01:57:19;;;;;;;8.70;4.97;;;;;;;7.29;66.35;99190.50;10414680;28;20052;-81
2022/10/01 02:02:27;;;;;;;10.43;5.72;;;;;;;7.31;66.43;99188.66;10394929;28;20040;-81
2022/10/01 02:07:28;;;;;;;12.65;6.72;;;;;;;7.29;66.71;99184.47;10398829;28;20067;-81
2022/10/01 02:13:00;;;;;;;13.02;5.60;;;;;;;7.32;66.73;99189.50;10413990;28;20048;-81
2022/10/01 02:18:17;;;;;;;9.98;4.88;;;;;;;7.30;67.00;99186.16;10402358;28;20050;-80
2022/10/01 02:23:27;;;;;;;8.75;5.10;;;;;;;7.31;67.49;99183.47;10401499;28;20495;-80
2022/10/01 02:28:32;;;;;;;13.52;5.60;;;;;;;7.55;67.25;99174.22;10409184;28;20404;-80
2022/10/01 02:33:36;;;;;;;8.13;4.20;;;;;;;7.91;67.06;99172.03;10414083;28;20063;-80
2022/10/01 02:38:40;;;;;;;7.63;4.68;;;;;;;8.07;67.29;99174.50;10399631;28;20897;-80
2022/10/01 02:44:03;;;;;;;7.78;3.72;;;;;;;8.12;68.10;99179.47;10393434;28;20045;-79
2022/10/01 02:49:05;;;;;;;9.07;4.10;;;;;;;8.52;67.79;99170.84;10414222;28;20048;-80
2022/10/01 02:54:16;;;;;;;8.80;3.85;;;;;;;8.75;67.58;99162.41;10398703;28;20048;-80
2022/10/01 02:59:21;;;;;;;6.85;3.40;;;;;;;8.92;67.84;99148.25;10410575;28;20053;-80
2022/10/01 03:04:23;;;;;;;6.30;3.70;;;;;;;8.94;67.77;99146.38;10408986;28;20060;-80
2022/10/01 03:09:25;;;;;;;9.25;3.67;;;;;;;9.11;67.79;99143.50;10402457;28;20064;-80
2022/10/01 03:14:27;;;;;;;9.77;4.60;;;;;;;9.23;67.96;99135.72;10418786;28;20054;-80
2022/10/01 03:19:29;;;;;;;7.85;3.40;;;;;;;9.24;67.66;99126.94;10415882;28;20064;-80
2022/10/01 03:24:31;;;;;;;9.02;4.05;;;;;;;9.31;67.98;99120.38;10408345;28;20045;-80
2022/10/01 03:29:32;;;;;;;6.60;3.10;;;;;;;9.37;68.00;99114.75;10393493;28;20057;-80
2022/10/01 03:34:34;;;;;;;7.60;3.97;;;;;;;9.42;67.93;99112.63;10411203;28;20052;-80
2022/10/01 03:39:36;;;;;;;7.40;3.97;;;;;;;9.34;68.36;99112.31;10413557;28;20499;-80
2022/10/01 03:44:37;;;;;;;7.95;4.82;;;;;;;9.44;68.17;99100.31;10410202;28;20045;-81
2022/10/01 03:49:39;;;;;;;8.93;3.83;;;;;;;9.47;68.26;99107.94;10402495;28;20053;-80
2022/10/01 03:54:41;;;;;;;6.47;3.60;;;;;;;9.45;68.02;99085.50;10408694;28;20045;-80
2022/10/01 03:59:42;;;;;;;7.82;4.10;;;;;;;9.39;68.35;99091.13;10401155;28;20053;-80
2022/10/01 04:04:44;;;;;;;7.30;4.25;;;;;;;9.39;68.39;99083.31;10397437;28;20052;-80
2022/10/01 04:09:46;;;;;;;6.30;3.90;;;;;;;9.40;68.24;99070.16;10394057;28;20044;-80
2022/10/01 04:14:47;;;;;;;7.60;3.83;;;;;;;9.41;68.42;99060.56;10407695;28;20048;-81
2022/10/01 04:19:49;;;;;;;8.02;3.50;;;;;;;9.31;68.62;99047.31;10397012;28;20064;-80
2022/10/01 04:24:52;;;;;;;6.32;3.80;;;;;;;9.34;68.75;99041.88;10399945;28;20052;-80
2022/10/01 04:29:54;;;;;;;5.47;3.85;;;;;;;9.40;68.69;99035.41;10410953;28;20052;-80
2022/10/01 04:34:56;;;;;;;5.20;3.13;;;;;;;9.43;68.49;99024.75;10390500;28;20053;-80
2022/10/01 04:40:33;;;;;;;6.10;3.75;;;;;;;9.41;68.82;99037.06;10412523;28;20056;-81
2022/10/01 04:45:36;;;;;;;5.72;3.25;;;;;;;9.36;68.97;99060.88;10414825;28;20057;-81
2022/10/01 04:50:37;;;;;;;9.23;3.85;;;;;;;9.40;68.84;99059.72;10399311;28;20060;-81
2022/10/01 04:55:39;;;;;;;9.35;3.70;;;;;;;9.33;69.20;99040.22;10399672;28;20045;-81
2022/10/01 05:00:41;;;;;;;7.18;3.42;;;;;;;9.40;69.25;99036.22;10395970;28;20141;-81
2022/10/01 05:05:43;;;;;;;4.60;3.05;;;;;;;9.41;69.15;99045.75;10403722;28;20060;-80
2022/10/01 05:10:44;;;;;;;6.50;3.75;;;;;;;9.55;68.85;99031.72;10410607;28;20053;-80
2022/10/01 05:15:50;;;;;;;7.18;4.30;;;;;;;9.55;69.17;99005.63;10416467;28;20050;-81
2022/10/01 05:20:52;;;;;;;6.60;4.13;;;;;;;9.54;69.22;98986.50;10408675;28;20053;-80
2022/10/01 05:25:54;;;;;;;7.63;4.15;;;;;;;9.50;69.39;98979.84;10394610;28;20046;-81
2022/10/01 05:31:02;;;;;;;7.43;3.90;;;;;;;9.52;69.55;98995.41;10386544;28;20064;-80
2022/10/01 05:36:05;;;;;;;9.07;4.10;;;;;;;9.58;69.36;98987.97;10386342;28;20545;-80
2022/10/01 05:41:07;;;;;;;7.15;3.55;;;;;;;9.63;69.36;98983.25;10389172;28;21013;-81
2022/10/01 05:46:09;;;;;;;5.13;3.40;;;;;;;9.70;69.00;98985.47;10412208;28;20065;-80
2022/10/01 05:51:14;;;;;;;6.22;3.55;;;;;;;9.71;69.13;98989.75;10403907;28;20053;-81
2022/10/01 05:56:15;;;;;;;4.97;3.03;;;;;;;9.69;69.14;99002.91;10391909;28;20602;-81
2022/10/01 06:01:17;;;;;;;6.97;3.70;;;;;;;9.75;69.04;98988.59;10398640;28;20049;-81
2022/10/01 06:06:23;;;;;;;8.75;3.70;;;;;;;9.87;68.96;98985.13;10389823;28;20063;-81
2022/10/01 06:11:25;;;;;;;6.35;2.70;;;;;;;9.87;68.83;98979.88;10395962;28;20064;-81
2022/10/01 06:16:28;;;;;;;4.10;2.50;;;;;;;9.97;68.72;98952.97;10407964;28;20507;-80
2022/10/01 06:21:30;;;;;;;6.80;3.78;;;;;;;10.03;68.87;98996.97;10405625;28;20064;-80
2022/10/01 06:26:32;;;;;;;4.60;2.97;;;;;;;10.04;68.53;98977.72;10396944;28;20471;-80
2022/10/01 06:32:12;;;;;;;4.93;3.03;;;;;;;10.00;69.20;98962.38;10412386;28;20912;-80
2022/10/01 06:37:14;;;;;;;4.78;3.30;;;;;;;10.11;68.91;98976.34;10409021;28;20525;-81
2022/10/01 06:42:15;;;;;;;10.82;5.63;;;;;;;10.10;68.70;98952.91;10402361;28;20510;-80
2022/10/01 06:47:17;;;;;;;3.72;2.50;;;;;;;10.08;68.93;98954.81;10416099;28;20064;-81
2022/10/01 06:57:39;;;;;;;3.03;1.90;;;;;;;10.12;69.00;98945.81;10419828;28;20774;-81
2022/10/01 07:02:40;;;;;;;4.30;1.80;;;;;;;10.13;69.43;98923.97;10397906;28;20071;-81
2022/10/01 07:07:47;;;;;;;1.90;1.40;;;;;;;10.23;69.09;98906.66;10397854;28;20545;-81
2022/10/01 07:12:49;;;;;;;9.60;6.20;;;;;;;10.10;69.63;98911.13;10415038;28;20815;-81
2022/10/01 07:17:51;;;;;;;2.38;1.30;;;;;;;10.16;69.56;98926.34;10420106;28;20075;-81
2022/10/01 07:22:57;;;;;;;1.92;1.40;;;;;;;10.22;69.32;98921.50;10414164;28;20423;-81
2022/10/01 07:28:03;;;;;;;2.35;1.40;;;;;;;10.41;69.19;98952.34;10410886;28;20056;-81
2022/10/01 07:33:05;;;;;;;2.85;1.17;;;;;;;10.43;68.82;98946.06;10413427;28;20728;-82
2022/10/01 07:38:06;;;;;;;2.83;1.20;;;;;;;10.55;68.62;98939.06;10395202;28;20053;-82
2022/10/01 07:43:08;;;;;;;2.17;1.20;;;;;;;10.75;68.24;98940.16;10400307;28;20049;-81
2022/10/01 07:48:10;;;;;;;1.20;1.00;;;;;;;10.80;67.97;98933.66;10420427;28;20049;-81
2022/10/01 07:53:12;;;;;;;0.88;0.85;;;;;;;10.85;68.08;98939.34;10393542;28;20690;-81
2022/10/01 07:58:14;;;;;;;1.30;0.90;;;;;;;10.95;67.66;98949.97;10394223;28;20049;-81
2022/10/01 08:03:15;;;;;;;1.48;1.00;;;;;;;10.94;67.75;98936.03;10413127;28;20049;-81
2022/10/01 08:08:17;;;;;;;1.38;1.02;;;;;;;11.02;67.28;98938.06;10416323;28;20152;-81
2022/10/01 08:13:23;;;;;;;2.40;1.50;;;;;;;11.17;67.43;98950.00;10414041;28;20070;-81
2022/10/01 08:18:25;;;;;;;3.95;2.17;;;;;;;11.24;67.20;98952.00;10410924;28;20052;-81
2022/10/01 08:23:30;;;;;;;3.03;2.22;;;;;;;11.29;67.17;98947.22;10403270;28;20482;-81
2022/10/01 08:28:34;;;;;;;2.33;1.60;;;;;;;11.48;66.98;98964.16;10398377;28;20045;-81
2022/10/01 08:33:37;;;;;;;3.05;1.50;;;;;;;11.61;66.36;98949.94;10391191;28;20045;-80
2022/10/01 08:38:46;;;;;;;1.40;1.20;;;;;;;11.81;66.11;98950.97;10402396;28;20056;-80
2022/10/01 08:43:50;;;;;;;0.95;0.85;;;;;;;12.24;65.66;98946.53;10384423;28;20052;-81
2022/10/01 08:49:05;;;;;;;1.67;1.15;;;;;;;12.39;64.96;98942.72;10407069;28;20053;-79
2022/10/01 08:54:29;;;;;;;2.05;1.40;;;;;;;12.27;64.84;98967.28;10386404;28;20050;-78
2022/10/01 08:59:39;;;;;;;8.05;1.35;;;;;;;12.19;65.29;98968.84;10396803;28;20053;-79
2022/10/01 09:04:52;;;;;;;6.33;2.93;;;;;;;11.93;66.46;98968.31;10392597;28;20140;-80
2022/10/01 09:10:12;;;;;;;5.82;2.33;;;;;;;12.05;66.36;98967.34;10411785;28;20054;-80
2022/10/01 09:15:24;;;;;;;1.30;1.10;;;;;;;12.40;65.77;98969.72;10401904;28;20049;-79
2022/10/01 09:20:37;;;;;;;2.22;1.50;;;;;;;12.69;65.20;98966.38;10411344;28;20439;-79
2022/10/01 09:25:44;;;;;;;3.92;2.45;;;;;;;12.91;64.54;98974.09;10388124;28;20107;-79
2022/10/01 09:31:10;;;;;;;2.35;1.48;;;;;;;13.16;64.10;98954.50;10393497;28;20076;-79
2022/10/01 09:36:25;;;;;;;3.72;2.15;;;;;;;13.66;63.38;98958.00;10388989;28;20037;-79
2022/10/01 09:41:30;;;;;;;4.32;1.40;;;;;;;13.91;62.66;98952.25;10410896;28;20053;-80
2022/10/01 09:46:34;;;;;;;2.70;1.35;;;;;;;14.14;61.73;98958.94;10389900;28;20053;-79
2022/10/01 09:51:41;;;;;;;2.97;1.75;;;;;;;14.21;61.79;98964.44;10394557;28;20060;-79
2022/10/01 09:56:49;;;;;;;3.70;1.88;;;;;;;13.81;62.17;98964.53;10388338;28;20059;-78
2022/10/01 10:02:49;;;;;;;2.42;1.40;;;;;;;13.62;62.74;98959.22;10409501;28;20041;-79
2022/10/01 10:08:03;;;;;;;4.10;1.50;;;;;;;14.08;62.14;98964.75;10188207;29;20130;-78
2022/10/01 10:13:33;;;;;;;3.75;2.03;;;;;;;14.07;61.93;98976.22;10238338;28;20630;-79
2022/10/01 10:18:38;;;;;;;3.10;1.40;;;;;;;13.95;63.20;98982.56;10407450;28;20532;-79
2022/10/01 10:23:50;;;;;;;3.55;1.60;;;;;;;13.92;63.88;98988.09;10409221;28;20048;-79
2022/10/01 10:28:51;;;;;;;6.13;2.30;;;;;;;13.87;63.99;98992.91;10390362;28;20072;-79
2022/10/01 10:34:31;;;;;;;4.97;1.83;;;;;;;13.99;64.22;98983.09;10382150;28;20053;-79
2022/10/01 10:39:40;;;;;;;4.53;2.28;;;;;;;14.27;64.11;98993.66;10394346;28;20045;-79
2022/10/01 10:44:48;;;;;;;3.80;1.30;;;;;;;14.28;64.17;99005.84;10386637;28;20056;-79
2022/10/01 10:49:57;;;;;;;5.30;1.70;;;;;;;14.22;64.39;99010.81;10411762;28;20061;-79
2022/10/01 10:55:23;;;;;;;5.30;1.88;;;;;;;14.38;65.04;99001.44;10399773;28;20124;-80
2022/10/01 11:00:34;;;;;;;6.47;1.58;;;;;;;14.76;64.00;99013.75;10407880;28;20045;-79
2022/10/01 11:05:40;;;;;;;7.20;1.35;;;;;;;14.82;64.08;99010.56;10388440;28;20045;-79
2022/10/01 11:11:19;;;;;;;4.30;1.50;;;;;;;14.47;63.76;99002.41;10392082;28;20057;-79
2022/10/01 11:16:31;;;;;;;2.90;1.30;;;;;;;14.51;64.52;99007.25;10202476;29;20075;-79
2022/10/01 11:21:49;;;;;;;7.75;1.40;;;;;;;14.32;64.60;99012.50;10194387;29;20082;-79
2022/10/01 11:26:56;;;;;;;5.03;1.58;;;;;;;14.65;64.79;99007.84;10375023;28;20049;-79
2022/10/01 11:32:37;;;;;;;3.65;1.10;;;;;;;15.15;63.68;99010.09;10416952;28;20067;-79
2022/10/01 11:38:12;;;;;;;2.75;1.02;;;;;;;15.20;62.75;99009.69;10412408;28;20464;-79
2022/10/01 11:43:33;;;;;;;4.75;1.40;;;;;;;15.12;62.47;99007.75;10416788;28;20131;-79
2022/10/01 11:48:47;;;;;;;2.10;1.10;;;;;;;15.39;61.38;98993.78;10412145;28;20056;-79
2022/10/01 11:53:57;;;;;;;4.28;1.10;;;;;;;15.96;60.21;98990.91;10415125;28;20045;-79
2022/10/01 11:59:09;;;;;;;4.23;1.30;;;;;;;16.09;59.73;98996.66;10400472;28;20048;-79
2022/10/01 12:04:24;;;;;;;4.38;1.48;;;;;;;16.45;58.66;98988.78;10396673;28;20462;-79
2022/10/01 12:09:38;;;;;;;4.07;1.45;;;;;;;16.65;57.13;98979.75;10403701;28;20057;-79
2022/10/01 12:14:47;;;;;;;8.65;1.35;;;;;;;16.80;57.52;98973.75;10417546;28;20956;-79
2022/10/01 12:19:53;;;;;;;8.88;1.42;;;;;;;16.49;57.28;98974.34;10417559;28;20080;-79
2022/10/01 12:25:00;;;;;;;5.80;1.40;;;;;;;16.81;56.71;98985.94;10392748;28;20041;-79
2022/10/01 12:30:17;;;;;;;4.18;1.30;;;;;;;17.31;55.49;98987.94;10397271;28;20054;-79
2022/10/01 12:35:34;;;;;;;3.63;1.20;;;;;;;17.77;54.42;98974.31;10406098;28;20459;-79
2022/10/01 12:41:03;;;;;;;5.53;1.30;;;;;;;17.82;53.21;98978.13;10398473;28;20059;-79
2022/10/01 12:46:29;;;;;;;7.22;1.65;;;;;;;17.86;52.72;98999.78;10407040;28;20041;-79
2022/10/01 12:51:51;;;;;;;7.65;2.45;;;;;;;17.55;53.43;98988.09;10395513;28;20053;-78
2022/10/01 12:57:27;;;;;;;9.65;2.20;;;;;;;17.41;53.17;98983.41;10392598;28;20045;-77
2022/10/01 13:03:10;;;;;;;6.88;1.70;;;;;;;17.47;52.83;98996.81;10400420;28;20052;-78
2022/10/01 13:08:16;;;;;;;6.38;2.30;;;;;;;17.74;52.88;98993.13;10408791;28;20075;-78
2022/10/01 13:13:32;;;;;;;8.48;2.30;;;;;;;18.05;52.42;98996.88;10398031;28;20049;-78
2022/10/01 13:18:49;;;;;;;6.55;1.55;;;;;;;18.04;51.80;99003.16;10397077;28;20068;-78
2022/10/01 13:24:32;;;;;;;5.65;1.90;;;;;;;17.76;51.99;99004.38;10413996;28;20057;-78
2022/10/01 13:29:54;;;;;;;6.53;2.22;;;;;;;17.30;52.75;99013.53;10398682;28;20446;-79
2022/10/01 13:35:38;;;;;;;6.18;1.70;;;;;;;17.34;53.45;99014.94;10408388;28;20056;-79
2022/10/01 13:40:40;;;;;;;5.05;1.48;;;;;;;17.68;53.20;99025.50;10397841;28;20096;-79
2022/10/01 13:45:50;;;;;;;7.70;1.65;;;;;;;18.15;51.09;99020.56;10407976;28;20048;-79
2022/10/01 13:51:14;;;;;;;6.43;1.77;;;;;;;18.16;51.14;99007.16;10410795;28;20045;-79
2022/10/01 13:56:31;;;;;;;5.53;1.63;;;;;;;17.92;51.69;99032.72;10406346;28;20069;-79
2022/10/01 14:01:40;;;;;;;6.60;1.70;;;;;;;17.74;52.10;99044.22;10414018;28;20053;-79
2022/10/01 14:06:57;;;;;;;5.30;1.70;;;;;;;18.12;52.28;99042.03;10406916;28;20407;-79
2022/10/01 14:17:36;;;;;;;6.05;1.88;;;;;;;18.72;51.21;99059.41;10404087;28;20063;-79
2022/10/01 14:23:14;;;;;;;6.47;1.60;;;;;;;18.45;50.69;99062.34;10390310;28;20042;-79
2022/10/01 14:28:36;;;;;;;4.13;1.50;;;;;;;18.72;51.17;99063.88;10387453;28;20422;-78
2022/10/01 14:33:39;;;;;;;4.80;1.45;;;;;;;18.92;50.78;99068.69;10410563;28;20491;-79
2022/10/01 14:38:48;;;;;;;7.28;1.60;;;;;;;18.97;49.81;99065.56;10387823;28;20148;-79
2022/10/01 14:43:53;;;;;;;6.75;1.50;;;;;;;18.86;49.65;99063.22;10390294;28;20148;-78
2022/10/01 14:48:59;;;;;;;5.43;1.60;;;;;;;19.11;49.98;99076.38;10407278;28;20055;-79
2022/10/01 14:54:03;;;;;;;5.55;1.67;;;;;;;19.30;49.56;99088.41;10409901;28;20072;-78
2022/10/01 14:59:13;;;;;;;5.63;1.80;;;;;;;18.96;50.40;99085.09;10408304;28;20052;-79
2022/10/01 15:04:26;;;;;;;5.50;1.73;;;;;;;18.63;51.06;99097.47;10414208;28;20057;-79
2022/10/01 15:09:32;;;;;;;10.63;1.90;;;;;;;18.22;51.98;99104.47;10400122;28;20053;-78
2022/10/01 15:14:35;;;;;;;5.63;1.83;;;;;;;17.70;53.21;99116.09;10400171;28;20410;-78
2022/10/01 15:19:45;;;;;;;22.27;2.55;;;;;;;17.65;53.35;99116.56;10420200;28;20053;-79
2022/10/01 15:24:49;;;;;;;5.22;1.58;;;;;;;17.43;54.43;99134.75;10404728;28;20053;-78
2022/10/01 15:29:54;;;;;;;8.52;2.20;;;;;;;17.15;54.89;99141.09;10419578;28;20421;-78
2022/10/01 15:35:00;;;;;;;6.63;1.90;;;;;;;16.82;55.57;99166.38;10419926;28;20059;-79
2022/10/01 15:40:11;;;;;;;7.78;2.10;;;;;;;16.76;57.01;99165.16;10414975;28;20052;-79
2022/10/01 15:45:24;;;;;;;9.95;1.88;;;;;;;16.51;57.32;99165.84;10402621;28;20525;-79
2022/10/01 15:50:35;;;;;;;6.38;1.67;;;;;;;16.31;57.48;99177.47;10402785;28;20077;-78
2022/10/01 15:55:49;;;;;;;5.57;1.63;;;;;;;16.13;58.10;99189.75;10425138;28;20053;-85
2022/10/01 16:01:07;;;;;;;9.43;2.53;;;;;;;16.01;58.28;99199.66;10402839;28;20064;-85
2022/10/01 16:06:22;;;;;;;7.65;2.00;;;;;;;16.01;58.56;99230.47;10407116;28;20053;-85
2022/10/01 16:11:30;;;;;;;6.95;2.40;;;;;;;15.93;59.00;99225.91;10421251;28;20053;-85
2022/10/01 16:16:32;;;;;;;9.10;2.00;;;;;;;15.64;58.54;99240.94;10402733;28;20403;-84
2022/10/01 16:21:39;;;;;;;6.10;1.90;;;;;;;15.35;58.19;99237.44;10419510;28;20106;-85
2022/10/01 16:26:42;;;;;;;6.25;2.05;;;;;;;15.26;58.19;99249.66;10419781;28;20053;-85
2022/10/01 16:31:44;;;;;;;8.75;2.30;;;;;;;15.05;58.92;99256.00;10395185;28;20938;-85
2022/10/01 16:36:46;;;;;;;11.73;2.72;;;;;;;14.93;59.58;99265.81;10414336;28;20096;-86
2022/10/01 16:41:48;;;;;;;8.27;2.00;;;;;;;14.81;60.35;99287.13;10397885;28;20054;-83
2022/10/01 16:47:11;;;;;;;9.32;2.15;;;;;;;14.82;60.94;99294.88;10405737;28;20104;-84
2022/10/01 16:52:15;;;;;;;10.07;1.90;;;;;;;14.73;61.75;99300.13;10418930;28;20048;-84
2022/10/01 16:57:17;;;;;;;8.02;2.05;;;;;;;14.69;61.97;99314.50;10417817;28;20057;-84
2022/10/01 17:02:18;;;;;;;8.38;1.80;;;;;;;14.55;62.41;99324.41;10418725;28;20073;-84
2022/10/01 17:07:20;;;;;;;7.88;2.03;;;;;;;14.48;62.52;99333.78;10418707;28;20049;-84
2022/10/01 17:12:22;;;;;;;6.95;1.85;;;;;;;14.39;62.78;99339.00;10400364;28;20404;-84
2022/10/01 17:17:23;;;;;;;12.50;3.20;;;;;;;14.27;63.22;99345.25;10417919;28;20057;-84
2022/10/01 17:22:25;;;;;;;17.88;4.20;;;;;;;14.22;63.40;99343.03;10413751;28;20058;-84
2022/10/01 17:27:27;;;;;;;8.75;3.15;;;;;;;14.16;63.35;99361.97;10414156;28;20049;-83
2022/10/01 17:32:28;;;;;;;11.07;2.25;;;;;;;14.06;63.92;99371.56;10416088;28;20068;-84
2022/10/01 17:37:30;;;;;;;8.65;2.25;;;;;;;13.97;64.21;99396.00;10400258;28;20068;-84
2022/10/01 17:42:34;;;;;;;7.82;2.28;;;;;;;13.83;64.46;99403.31;10398931;28;20118;-83
2022/10/01 17:47:40;;;;;;;10.45;2.88;;;;;;;13.79;64.36;99426.41;10396906;28;20060;-84
2022/10/01 17:52:45;;;;;;;7.40;2.25;;;;;;;13.67;64.89;99437.91;10413653;28;20053;-83
2022/10/01 17:57:50;;;;;;;9.50;2.70;;;;;;;13.58;65.16;99447.34;10416196;28;20150;-83
2022/10/01 18:02:52;;;;;;;13.10;2.15;;;;;;;13.52;65.30;99466.22;10418248;28;20052;-80
2022/10/01 18:07:54;;;;;;;9.15;2.15;;;;;;;13.51;65.35;99477.72;10396959;28;20140;-80
2022/10/01 18:13:08;;;;;;;7.32;1.98;;;;;;;13.46;65.41;99481.63;10408295;28;20818;-80
2022/10/01 18:18:10;;;;;;;11.45;2.30;;;;;;;13.45;65.41;99498.38;10413414;28;20061;-80
2022/10/01 18:23:32;;;;;;;7.90;2.08;;;;;;;13.38;65.39;99502.38;10400054;28;20054;-80
2022/10/01 18:28:33;;;;;;;10.02;2.10;;;;;;;13.34;65.36;99516.72;10414699;28;20056;-80
2022/10/01 18:33:44;;;;;;;7.35;2.22;;;;;;;13.38;65.32;99518.13;10414930;28;20050;-80
2022/10/01 18:38:51;;;;;;;8.80;2.40;;;;;;;13.38;65.13;99513.72;10403980;28;20143;-80
2022/10/01 18:43:53;;;;;;;9.70;2.10;;;;;;;13.31;65.02;99523.03;10404479;28;20045;-80
2022/10/01 18:49:30;;;;;;;10.95;2.47;;;;;;;13.16;65.65;99529.47;10405824;28;20048;-80
2022/10/01 18:54:56;;;;;;;11.20;2.45;;;;;;;13.18;65.71;99547.72;10323938;28;20653;-80
2022/10/01 18:59:58;;;;;;;10.18;2.72;;;;;;;13.19;65.66;99560.72;10403144;28;20060;-81
2022/10/01 19:05:28;;;;;;;13.75;4.47;;;;;;;13.31;65.73;99580.00;10404957;28;20049;-80
2022/10/01 19:11:05;;;;;;;15.63;3.97;;;;;;;13.47;65.96;99604.16;10423844;28;20058;-80
2022/10/01 19:16:25;;;;;;;10.27;2.58;;;;;;;13.38;67.08;99597.78;10418877;28;20045;-81
2022/10/01 19:21:51;;;;;;;11.48;2.60;;;;;;;13.20;66.61;99614.09;10405216;28;20059;-81
2022/10/01 19:27:21;;;;;;;16.65;2.90;;;;;;;13.11;66.66;99614.81;10421463;28;20932;-80
2022/10/01 19:32:44;;;;;;;12.50;2.63;;;;;;;12.93;67.24;99615.22;10399701;28;20064;-81
2022/10/01 19:38:25;;;;;;;7.80;2.30;;;;;;;12.76;67.53;99636.59;10400994;28;20660;-80
2022/10/01 19:43:36;;;;;;;10.02;2.40;;;;;;;12.62;67.97;99634.16;10403590;28;20503;-80
2022/10/01 19:48:50;;;;;;;13.27;3.92;;;;;;;12.49;67.95;99643.88;10401520;28;20067;-80
2022/10/01 19:53:58;;;;;;;11.90;3.13;;;;;;;12.46;68.15;99648.47;10416479;28;20049;-80
2022/10/01 19:59:09;;;;;;;14.40;3.05;;;;;;;12.40;68.06;99669.91;10419440;28;20053;-80
2022/10/01 20:04:20;;;;;;;;;;;;;;;11.99;69.37;99685.88;10405137;28;20893;-80
2022/10/01 20:09:37;;;;;;;11.63;3.42;;;;;;;12.14;68.47;99695.31;10401565;28;19924;-80
2022/10/01 20:15:07;;;;;;;14.13;4.25;;;;;;;12.18;68.08;99701.19;10418566;28;20041;-80
2022/10/01 20:20:22;;;;;;;15.95;4.57;;;;;;;12.11;68.17;99713.88;10417067;28;20048;-80
2022/10/01 20:25:43;;;;;;;19.85;5.40;;;;;;;12.06;68.49;99724.69;10402715;28;20049;-80
2022/10/01 20:31:03;;;;;;;;;;;;;;;11.77;68.81;99725.84;10403112;28;20056;-80
2022/10/01 20:36:10;;;;;;;13.57;4.32;;;;;;;11.99;68.14;99730.44;10421331;28;20389;-80
2022/10/01 20:41:15;;;;;;;17.58;4.85;;;;;;;12.01;67.84;99742.50;10403181;28;20071;-80
2022/10/01 20:46:33;;;;;;;10.27;3.35;;;;;;;11.94;68.06;99746.50;10399552;28;20454;-79
2022/10/01 20:51:51;;;;;;;12.48;3.17;;;;;;;11.94;67.97;99754.38;10400716;28;20138;-79
2022/10/01 20:57:20;;;;;;;14.52;5.13;;;;;;;11.85;67.84;99757.59;10399128;28;20057;-79
2022/10/01 21:02:27;;;;;;;13.32;2.88;;;;;;;11.89;67.79;99752.97;10412967;28;20053;-79
2022/10/01 21:07:35;;;;;;;13.57;2.92;;;;;;;11.81;68.11;99765.75;10417073;28;20943;-80
2022/10/01 21:12:43;;;;;;;14.25;2.78;;;;;;;11.82;68.15;99772.69;10413356;28;20048;-80
2022/10/01 21:18:10;;;;;;;14.07;3.25;;;;;;;11.85;68.14;99772.47;10398595;28;20041;-79
2022/10/01 21:23:23;;;;;;;14.18;2.90;;;;;;;12.03;68.09;99787.78;10412759;28;20049;-79
2022/10/01 21:28:28;;;;;;;12.75;2.85;;;;;;;12.09;67.87;99792.63;10397477;28;20049;-79
2022/10/01 21:33:43;;;;;;;10.98;2.63;;;;;;;12.15;67.97;99792.19;10410820;28;20065;-80
2022/10/01 21:38:58;;;;;;;10.40;2.35;;;;;;;12.06;68.03;99812.97;10395753;28;20418;-80
2022/10/01 21:44:31;;;;;;;12.32;2.80;;;;;;;11.95;68.14;99815.47;10395035;28;20057;-79
2022/10/01 21:49:55;;;;;;;12.60;2.50;;;;;;;11.83;68.83;99818.91;10415262;28;20063;-79
2022/10/01 21:55:16;;;;;;;14.63;2.83;;;;;;;11.83;68.47;99816.28;10412779;28;20049;-80
2022/10/01 22:00:23;;;;;;;8.37;2.37;;;;;;;11.79;68.77;99820.91;10394278;28;20048;-80
2022/10/01 22:05:36;;;;;;;10.07;2.38;;;;;;;11.83;68.88;99837.25;10409278;28;20049;-80
2022/10/01 22:10:44;;;;;;;13.45;2.90;;;;;;;11.83;68.93;99838.09;10414269;28;20525;-79
2022/10/01 22:15:51;;;;;;;13.07;2.40;;;;;;;11.98;68.32;99851.97;10416119;28;20103;-79
2022/10/01 22:20:55;;;;;;;9.77;2.40;;;;;;;12.02;68.52;99854.28;10397715;28;20067;-79
2022/10/01 22:26:02;;;;;;;11.65;2.60;;;;;;;12.08;68.09;99850.41;10415036;28;20063;-79
2022/10/01 22:31:09;;;;;;;13.68;2.92;;;;;;;12.06;68.18;99855.75;10398392;28;20507;-79
2022/10/01 22:36:17;;;;;;;8.77;2.40;;;;;;;12.15;68.00;99856.91;10410549;28;20050;-79
2022/10/01 22:41:30;;;;;;;10.93;2.33;;;;;;;12.21;67.80;99867.00;10418109;28;20053;-79
2022/10/01 22:47:17;;;;;;;9.38;2.80;;;;;;;12.26;67.60;99878.00;10396011;28;20962;-80
2022/10/01 22:52:32;;;;;;;11.82;2.40;;;;;;;12.38;67.75;99877.22;10400943;28;20059;-79
2022/10/01 22:57:51;;;;;;;12.55;3.17;;;;;;;12.47;67.41;99892.34;10396965;28;20057;-80
2022/10/01 23:03:12;;;;;;;13.65;2.40;;;;;;;12.47;67.38;99879.22;10412394;28;20525;-80
2022/10/01 23:08:31;;;;;;;10.43;2.60;;;;;;;12.33;67.59;99892.44;10411573;28;20051;-80
2022/10/01 23:13:32;;;;;;;14.07;2.70;;;;;;;12.24;67.78;99895.63;10410464;28;20490;-80
2022/10/01 23:18:56;;;;;;;13.55;2.63;;;;;;;12.14;68.14;99892.78;10394740;28;20487;-80
2022/10/01 23:24:16;;;;;;;10.23;2.67;;;;;;;11.99;68.50;99903.44;10401947;28;20052;-80
2022/10/01 23:29:44;;;;;;;12.15;2.63;;;;;;;11.96;68.83;99919.38;10403084;28;20068;-80
2022/10/01 23:35:03;;;;;;;14.65;2.95;;;;;;;11.91;68.92;99910.94;10398221;28;20057;-79
2022/10/01 23:40:10;;;;;;;12.73;2.90;;;;;;;11.93;69.32;99916.94;10402462;28;20513;-79
2022/10/01 23:45:22;;;;;;;12.25;2.70;;;;;;;11.87;69.33;99920.81;10419164;28;20041;-79
2022/10/01 23:50:38;;;;;;;16.48;2.90;;;;;;;11.83;69.54;99921.94;10418116;28;20095;-79
